sensor_id;sensor_type;location;lat;lon;timestamp;temperature;humidity
39925;DHT22;25592;49.986;11.618;2023-07-20T00:00:12;22.10;81.20
39925;DHT22;25592;49.986;11.618;2023-07-20T00:03:14;22.20;79.70
39925;DHT22;25592;49.986;11.618;2023-07-20T00:06:04;22.20;80.10
39925;DHT22;25592;49.986;11.618;2023-07-20T00:08:50;22.20;79.00
39925;DHT22;25592;49.986;11.618;2023-07-20T00:11:37;22.10;80.90
39925;DHT22;25592;49.986;11.618;2023-07-20T00:14:23;22.00;80.90
39925;DHT22;25592;49.986;11.618;2023-07-20T00:17:09;22.00;82.40
39925;DHT22;25592;49.986;11.618;2023-07-20T00:19:54;22.00;82.20
39925;DHT22;25592;49.986;11.618;2023-07-20T00:22:39;22.00;82.80
39925;DHT22;25592;49.986;11.618;2023-07-20T00:25:25;22.00;82.50
39925;DHT22;25592;49.986;11.618;2023-07-20T00:28:10;21.90;83.00
39925;DHT22;25592;49.986;11.618;2023-07-20T00:30:55;21.90;83.20
39925;DHT22;25592;49.986;11.618;2023-07-20T00:33:41;22.00;82.50
39925;DHT22;25592;49.986;11.618;2023-07-20T00:36:26;21.90;83.30
39925;DHT22;25592;49.986;11.618;2023-07-20T00:39:11;21.90;83.30
39925;DHT22;25592;49.986;11.618;2023-07-20T00:41:57;22.00;82.90
39925;DHT22;25592;49.986;11.618;2023-07-20T00:44:42;22.00;82.80
39925;DHT22;25592;49.986;11.618;2023-07-20T00:47:28;22.00;83.40
39925;DHT22;25592;49.986;11.618;2023-07-20T00:50:13;22.00;83.50
39925;DHT22;25592;49.986;11.618;2023-07-20T00:52:59;21.90;83.60
39925;DHT22;25592;49.986;11.618;2023-07-20T00:55:44;21.90;84.00
39925;DHT22;25592;49.986;11.618;2023-07-20T00:58:29;21.90;83.30
39925;DHT22;25592;49.986;11.618;2023-07-20T01:01:15;21.90;83.50
39925;DHT22;25592;49.986;11.618;2023-07-20T01:04:01;21.90;84.00
39925;DHT22;25592;49.986;11.618;2023-07-20T01:06:56;21.80;83.70
39925;DHT22;25592;49.986;11.618;2023-07-20T01:12:51;21.80;83.30
39925;DHT22;25592;49.986;11.618;2023-07-20T01:15:37;21.80;82.80
39925;DHT22;25592;49.986;11.618;2023-07-20T01:18:22;21.70;82.60
39925;DHT22;25592;49.986;11.618;2023-07-20T01:21:09;21.70;83.20
39925;DHT22;25592;49.986;11.618;2023-07-20T01:31:13;21.50;82.50
39925;DHT22;25592;49.986;11.618;2023-07-20T01:34:01;21.40;83.10
39925;DHT22;25592;49.986;11.618;2023-07-20T01:36:48;21.40;83.50
39925;DHT22;25592;49.986;11.618;2023-07-20T01:39:36;21.30;83.80
39925;DHT22;25592;49.986;11.618;2023-07-20T01:42:23;21.30;83.60
39925;DHT22;25592;49.986;11.618;2023-07-20T01:45:10;21.20;83.70
39925;DHT22;25592;49.986;11.618;2023-07-20T01:47:55;21.20;82.70
39925;DHT22;25592;49.986;11.618;2023-07-20T01:50:40;21.20;83.40
39925;DHT22;25592;49.986;11.618;2023-07-20T01:53:26;21.20;83.60
39925;DHT22;25592;49.986;11.618;2023-07-20T01:56:11;21.00;83.10
39925;DHT22;25592;49.986;11.618;2023-07-20T01:58:57;21.10;83.20
39925;DHT22;25592;49.986;11.618;2023-07-20T02:01:42;21.00;83.30
39925;DHT22;25592;49.986;11.618;2023-07-20T02:04:28;21.00;83.20
39925;DHT22;25592;49.986;11.618;2023-07-20T02:07:13;20.90;83.30
39925;DHT22;25592;49.986;11.618;2023-07-20T02:09:58;20.90;82.90
39925;DHT22;25592;49.986;11.618;2023-07-20T02:12:44;20.90;83.00
39925;DHT22;25592;49.986;11.618;2023-07-20T02:15:29;20.80;82.70
39925;DHT22;25592;49.986;11.618;2023-07-20T02:18:15;20.80;81.90
39925;DHT22;25592;49.986;11.618;2023-07-20T02:21:00;20.90;82.50
39925;DHT22;25592;49.986;11.618;2023-07-20T02:23:45;20.90;82.50
39925;DHT22;25592;49.986;11.618;2023-07-20T02:26:31;20.80;83.00
39925;DHT22;25592;49.986;11.618;2023-07-20T02:29:16;20.70;82.90
39925;DHT22;25592;49.986;11.618;2023-07-20T02:32:02;20.60;83.00
39925;DHT22;25592;49.986;11.618;2023-07-20T02:34:48;20.60;83.10
39925;DHT22;25592;49.986;11.618;2023-07-20T02:37:33;20.70;82.90
39925;DHT22;25592;49.986;11.618;2023-07-20T02:40:19;20.80;82.80
39925;DHT22;25592;49.986;11.618;2023-07-20T02:43:04;20.70;83.50
39925;DHT22;25592;49.986;11.618;2023-07-20T02:45:50;20.60;84.80
39925;DHT22;25592;49.986;11.618;2023-07-20T02:48:35;20.60;83.80
39925;DHT22;25592;49.986;11.618;2023-07-20T02:51:21;20.60;84.70
39925;DHT22;25592;49.986;11.618;2023-07-20T02:54:07;20.60;83.90
39925;DHT22;25592;49.986;11.618;2023-07-20T02:56:53;20.60;84.40
39925;DHT22;25592;49.986;11.618;2023-07-20T02:59:38;20.70;82.20
39925;DHT22;25592;49.986;11.618;2023-07-20T03:02:24;20.70;84.30
39925;DHT22;25592;49.986;11.618;2023-07-20T03:05:10;20.60;83.80
39925;DHT22;25592;49.986;11.618;2023-07-20T03:07:56;20.60;84.60
39925;DHT22;25592;49.986;11.618;2023-07-20T03:10:41;20.60;85.10
39925;DHT22;25592;49.986;11.618;2023-07-20T03:13:26;20.60;84.70
39925;DHT22;25592;49.986;11.618;2023-07-20T03:16:14;20.60;85.20
39925;DHT22;25592;49.986;11.618;2023-07-20T03:19:00;20.60;84.40
39925;DHT22;25592;49.986;11.618;2023-07-20T03:21:46;20.60;83.90
39925;DHT22;25592;49.986;11.618;2023-07-20T03:24:31;20.70;84.60
39925;DHT22;25592;49.986;11.618;2023-07-20T03:27:17;20.60;85.50
39925;DHT22;25592;49.986;11.618;2023-07-20T03:30:02;20.60;86.80
39925;DHT22;25592;49.986;11.618;2023-07-20T03:32:48;20.60;86.00
39925;DHT22;25592;49.986;11.618;2023-07-20T03:35:33;20.70;86.20
39925;DHT22;25592;49.986;11.618;2023-07-20T03:38:19;20.70;86.50
39925;DHT22;25592;49.986;11.618;2023-07-20T03:41:04;20.60;87.00
39925;DHT22;25592;49.986;11.618;2023-07-20T03:43:50;20.60;87.70
39925;DHT22;25592;49.986;11.618;2023-07-20T03:46:35;20.60;88.00
39925;DHT22;25592;49.986;11.618;2023-07-20T03:49:20;20.60;87.60
39925;DHT22;25592;49.986;11.618;2023-07-20T03:52:06;20.70;87.50
39925;DHT22;25592;49.986;11.618;2023-07-20T03:54:51;20.60;88.20
39925;DHT22;25592;49.986;11.618;2023-07-20T03:57:37;20.60;88.20
39925;DHT22;25592;49.986;11.618;2023-07-20T04:00:22;20.70;86.20
39925;DHT22;25592;49.986;11.618;2023-07-20T04:03:08;20.60;88.20
39925;DHT22;25592;49.986;11.618;2023-07-20T04:05:54;20.60;87.40
39925;DHT22;25592;49.986;11.618;2023-07-20T04:08:43;20.60;86.80
39925;DHT22;25592;49.986;11.618;2023-07-20T04:11:28;20.70;87.80
39925;DHT22;25592;49.986;11.618;2023-07-20T04:14:13;20.60;88.40
39925;DHT22;25592;49.986;11.618;2023-07-20T04:16:58;20.60;89.40
39925;DHT22;25592;49.986;11.618;2023-07-20T04:19:45;20.50;89.20
39925;DHT22;25592;49.986;11.618;2023-07-20T04:22:31;20.60;88.50
39925;DHT22;25592;49.986;11.618;2023-07-20T04:25:18;20.50;89.20
39925;DHT22;25592;49.986;11.618;2023-07-20T04:28:03;20.50;89.50
39925;DHT22;25592;49.986;11.618;2023-07-20T04:30:49;20.60;89.20
39925;DHT22;25592;49.986;11.618;2023-07-20T04:33:36;20.60;90.00
39925;DHT22;25592;49.986;11.618;2023-07-20T04:36:22;20.60;89.70
39925;DHT22;25592;49.986;11.618;2023-07-20T04:39:09;20.50;90.10
39925;DHT22;25592;49.986;11.618;2023-07-20T04:42:14;20.60;90.10
39925;DHT22;25592;49.986;11.618;2023-07-20T04:45:00;20.60;89.60
39925;DHT22;25592;49.986;11.618;2023-07-20T04:47:46;20.60;90.10
39925;DHT22;25592;49.986;11.618;2023-07-20T04:50:31;20.60;90.10
39925;DHT22;25592;49.986;11.618;2023-07-20T04:53:16;20.60;90.50
39925;DHT22;25592;49.986;11.618;2023-07-20T04:56:02;20.60;90.60
39925;DHT22;25592;49.986;11.618;2023-07-20T04:58:47;20.60;90.10
39925;DHT22;25592;49.986;11.618;2023-07-20T05:01:33;20.50;90.90
39925;DHT22;25592;49.986;11.618;2023-07-20T05:04:18;20.60;90.70
39925;DHT22;25592;49.986;11.618;2023-07-20T05:07:06;20.50;90.90
39925;DHT22;25592;49.986;11.618;2023-07-20T05:09:52;20.50;91.10
39925;DHT22;25592;49.986;11.618;2023-07-20T05:12:37;20.60;91.10
39925;DHT22;25592;49.986;11.618;2023-07-20T05:15:23;20.60;91.10
39925;DHT22;25592;49.986;11.618;2023-07-20T05:18:08;20.60;91.10
39925;DHT22;25592;49.986;11.618;2023-07-20T05:20:53;20.70;91.40
39925;DHT22;25592;49.986;11.618;2023-07-20T05:23:40;20.70;91.30
39925;DHT22;25592;49.986;11.618;2023-07-20T05:26:25;20.60;91.50
39925;DHT22;25592;49.986;11.618;2023-07-20T05:29:11;20.80;91.40
39925;DHT22;25592;49.986;11.618;2023-07-20T05:31:56;20.70;89.80
39925;DHT22;25592;49.986;11.618;2023-07-20T05:34:41;20.80;88.90
39925;DHT22;25592;49.986;11.618;2023-07-20T05:37:27;20.90;90.20
39925;DHT22;25592;49.986;11.618;2023-07-20T05:40:13;21.10;90.10
39925;DHT22;25592;49.986;11.618;2023-07-20T05:43:00;21.10;90.10
39925;DHT22;25592;49.986;11.618;2023-07-20T05:45:46;21.20;89.70
39925;DHT22;25592;49.986;11.618;2023-07-20T05:48:33;21.30;89.30
39925;DHT22;25592;49.986;11.618;2023-07-20T05:51:18;21.40;89.10
39925;DHT22;25592;49.986;11.618;2023-07-20T05:54:04;21.20;89.30
39925;DHT22;25592;49.986;11.618;2023-07-20T05:56:50;21.20;89.70
39925;DHT22;25592;49.986;11.618;2023-07-20T05:59:35;21.20;89.50
39925;DHT22;25592;49.986;11.618;2023-07-20T06:02:20;21.20;89.20
39925;DHT22;25592;49.986;11.618;2023-07-20T06:05:07;21.30;88.70
39925;DHT22;25592;49.986;11.618;2023-07-20T06:07:55;21.30;88.70
39925;DHT22;25592;49.986;11.618;2023-07-20T06:10:42;21.40;87.70
39925;DHT22;25592;49.986;11.618;2023-07-20T06:13:30;21.40;88.20
39925;DHT22;25592;49.986;11.618;2023-07-20T06:16:16;21.40;87.70
39925;DHT22;25592;49.986;11.618;2023-07-20T06:19:01;21.40;87.60
39925;DHT22;25592;49.986;11.618;2023-07-20T06:21:46;21.30;89.10
39925;DHT22;25592;49.986;11.618;2023-07-20T06:24:32;21.10;88.90
39925;DHT22;25592;49.986;11.618;2023-07-20T06:27:17;21.20;89.00
39925;DHT22;25592;49.986;11.618;2023-07-20T06:30:03;21.20;88.30
39925;DHT22;25592;49.986;11.618;2023-07-20T06:32:48;21.10;88.10
39925;DHT22;25592;49.986;11.618;2023-07-20T06:35:34;21.10;88.10
39925;DHT22;25592;49.986;11.618;2023-07-20T06:38:22;20.90;87.90
39925;DHT22;25592;49.986;11.618;2023-07-20T06:41:11;21.00;88.50
39925;DHT22;25592;49.986;11.618;2023-07-20T06:43:59;21.00;88.50
39925;DHT22;25592;49.986;11.618;2023-07-20T06:46:45;21.10;87.90
39925;DHT22;25592;49.986;11.618;2023-07-20T06:49:30;21.20;87.70
39925;DHT22;25592;49.986;11.618;2023-07-20T06:52:16;20.90;87.50
39925;DHT22;25592;49.986;11.618;2023-07-20T06:55:01;21.00;87.20
39925;DHT22;25592;49.986;11.618;2023-07-20T06:57:50;20.90;88.40
39925;DHT22;25592;49.986;11.618;2023-07-20T07:00:36;21.20;87.70
39925;DHT22;25592;49.986;11.618;2023-07-20T07:03:22;21.30;87.40
39925;DHT22;25592;49.986;11.618;2023-07-20T07:06:12;21.40;86.70
39925;DHT22;25592;49.986;11.618;2023-07-20T07:08:57;21.60;86.10
39925;DHT22;25592;49.986;11.618;2023-07-20T07:11:43;21.70;85.40
39925;DHT22;25592;49.986;11.618;2023-07-20T07:14:28;21.70;85.10
39925;DHT22;25592;49.986;11.618;2023-07-20T07:17:13;21.80;84.60
39925;DHT22;25592;49.986;11.618;2023-07-20T07:20:05;21.90;83.80
39925;DHT22;25592;49.986;11.618;2023-07-20T07:22:52;21.70;83.20
39925;DHT22;25592;49.986;11.618;2023-07-20T07:25:39;21.70;82.90
39925;DHT22;25592;49.986;11.618;2023-07-20T07:28:25;21.80;83.10
39925;DHT22;25592;49.986;11.618;2023-07-20T07:31:10;21.70;81.70
39925;DHT22;25592;49.986;11.618;2023-07-20T07:33:56;21.60;81.80
39925;DHT22;25592;49.986;11.618;2023-07-20T07:36:41;21.50;81.20
39925;DHT22;25592;49.986;11.618;2023-07-20T07:39:27;21.50;81.20
39925;DHT22;25592;49.986;11.618;2023-07-20T07:42:19;21.50;80.40
39925;DHT22;25592;49.986;11.618;2023-07-20T07:45:06;21.30;81.00
39925;DHT22;25592;49.986;11.618;2023-07-20T07:47:52;21.50;80.90
39925;DHT22;25592;49.986;11.618;2023-07-20T07:50:37;21.70;80.50
39925;DHT22;25592;49.986;11.618;2023-07-20T07:53:23;21.80;79.70
39925;DHT22;25592;49.986;11.618;2023-07-20T07:56:11;22.00;79.80
39925;DHT22;25592;49.986;11.618;2023-07-20T07:58:56;22.20;78.90
39925;DHT22;25592;49.986;11.618;2023-07-20T08:01:42;22.20;78.10
39925;DHT22;25592;49.986;11.618;2023-07-20T08:04:27;21.90;77.80
39925;DHT22;25592;49.986;11.618;2023-07-20T08:07:12;22.00;78.00
39925;DHT22;25592;49.986;11.618;2023-07-20T08:09:58;22.10;77.50
39925;DHT22;25592;49.986;11.618;2023-07-20T08:12:44;22.00;77.80
39925;DHT22;25592;49.986;11.618;2023-07-20T08:15:30;22.10;77.30
39925;DHT22;25592;49.986;11.618;2023-07-20T08:18:15;22.20;76.50
39925;DHT22;25592;49.986;11.618;2023-07-20T08:21:00;22.40;76.60
39925;DHT22;25592;49.986;11.618;2023-07-20T08:23:46;22.50;76.70
39925;DHT22;25592;49.986;11.618;2023-07-20T08:26:31;22.70;75.40
39925;DHT22;25592;49.986;11.618;2023-07-20T08:29:16;22.80;73.80
39925;DHT22;25592;49.986;11.618;2023-07-20T08:32:03;22.50;74.60
39925;DHT22;25592;49.986;11.618;2023-07-20T08:34:49;22.60;75.10
39925;DHT22;25592;49.986;11.618;2023-07-20T08:37:35;22.60;73.10
39925;DHT22;25592;49.986;11.618;2023-07-20T08:40:21;22.90;72.70
39925;DHT22;25592;49.986;11.618;2023-07-20T08:43:06;22.70;72.70
39925;DHT22;25592;49.986;11.618;2023-07-20T08:45:54;22.70;73.30
39925;DHT22;25592;49.986;11.618;2023-07-20T08:48:42;22.70;72.80
39925;DHT22;25592;49.986;11.618;2023-07-20T08:51:29;22.70;72.80
39925;DHT22;25592;49.986;11.618;2023-07-20T08:54:16;22.70;73.50
39925;DHT22;25592;49.986;11.618;2023-07-20T08:57:02;22.60;73.50
39925;DHT22;25592;49.986;11.618;2023-07-20T08:59:49;22.80;73.50
39925;DHT22;25592;49.986;11.618;2023-07-20T09:02:38;23.10;72.80
39925;DHT22;25592;49.986;11.618;2023-07-20T09:05:26;23.10;72.00
39925;DHT22;25592;49.986;11.618;2023-07-20T09:08:12;23.10;72.20
39925;DHT22;25592;49.986;11.618;2023-07-20T09:10:57;23.00;71.80
39925;DHT22;25592;49.986;11.618;2023-07-20T09:13:43;23.30;71.10
39925;DHT22;25592;49.986;11.618;2023-07-20T09:16:28;23.50;69.70
39925;DHT22;25592;49.986;11.618;2023-07-20T09:19:16;23.60;69.60
39925;DHT22;25592;49.986;11.618;2023-07-20T09:22:02;23.40;69.80
39925;DHT22;25592;49.986;11.618;2023-07-20T09:24:52;23.70;67.90
39925;DHT22;25592;49.986;11.618;2023-07-20T09:27:39;23.90;67.50
39925;DHT22;25592;49.986;11.618;2023-07-20T09:30:25;23.80;67.30
39925;DHT22;25592;49.986;11.618;2023-07-20T09:33:21;23.40;67.30
39925;DHT22;25592;49.986;11.618;2023-07-20T09:36:10;23.70;66.80
39925;DHT22;25592;49.986;11.618;2023-07-20T09:39:16;23.60;66.90
39925;DHT22;25592;49.986;11.618;2023-07-20T09:42:14;23.50;68.10
39925;DHT22;25592;49.986;11.618;2023-07-20T09:45:03;23.40;68.10
39925;DHT22;25592;49.986;11.618;2023-07-20T09:47:49;23.50;66.40
39925;DHT22;25592;49.986;11.618;2023-07-20T09:50:56;23.70;65.60
39925;DHT22;25592;49.986;11.618;2023-07-20T09:53:41;23.80;64.90
39925;DHT22;25592;49.986;11.618;2023-07-20T09:56:28;24.00;64.80
39925;DHT22;25592;49.986;11.618;2023-07-20T09:59:15;24.30;65.60
39925;DHT22;25592;49.986;11.618;2023-07-20T10:02:02;24.40;63.80
39925;DHT22;25592;49.986;11.618;2023-07-20T10:04:53;24.50;63.70
39925;DHT22;25592;49.986;11.618;2023-07-20T10:07:43;24.80;62.90
39925;DHT22;25592;49.986;11.618;2023-07-20T10:10:30;25.00;62.10
39925;DHT22;25592;49.986;11.618;2023-07-20T10:13:27;25.00;62.20
39925;DHT22;25592;49.986;11.618;2023-07-20T10:16:28;25.00;61.80
39925;DHT22;25592;49.986;11.618;2023-07-20T10:19:30;25.00;61.90
39925;DHT22;25592;49.986;11.618;2023-07-20T10:22:25;24.90;62.30
39925;DHT22;25592;49.986;11.618;2023-07-20T10:25:11;24.80;62.50
39925;DHT22;25592;49.986;11.618;2023-07-20T10:27:57;24.70;62.50
39925;DHT22;25592;49.986;11.618;2023-07-20T10:30:43;24.50;63.50
39925;DHT22;25592;49.986;11.618;2023-07-20T10:33:30;24.60;62.70
39925;DHT22;25592;49.986;11.618;2023-07-20T10:36:15;24.80;62.80
39925;DHT22;25592;49.986;11.618;2023-07-20T10:39:01;24.70;62.60
39925;DHT22;25592;49.986;11.618;2023-07-20T10:41:46;24.60;63.10
39925;DHT22;25592;49.986;11.618;2023-07-20T10:44:32;24.40;61.10
39925;DHT22;25592;49.986;11.618;2023-07-20T10:47:17;24.10;61.30
39925;DHT22;25592;49.986;11.618;2023-07-20T10:50:03;23.90;62.60
39925;DHT22;25592;49.986;11.618;2023-07-20T10:53:13;23.90;63.10
39925;DHT22;25592;49.986;11.618;2023-07-20T10:56:11;24.00;62.70
39925;DHT22;25592;49.986;11.618;2023-07-20T10:58:59;23.70;63.60
39925;DHT22;25592;49.986;11.618;2023-07-20T11:01:45;23.70;64.70
39925;DHT22;25592;49.986;11.618;2023-07-20T11:04:43;23.70;64.70
39925;DHT22;25592;49.986;11.618;2023-07-20T11:07:38;24.30;65.20
39925;DHT22;25592;49.986;11.618;2023-07-20T11:10:23;24.60;64.00
39925;DHT22;25592;49.986;11.618;2023-07-20T11:13:19;24.70;63.00
39925;DHT22;25592;49.986;11.618;2023-07-20T11:16:05;25.00;64.30
39925;DHT22;25592;49.986;11.618;2023-07-20T11:18:51;25.30;63.20
39925;DHT22;25592;49.986;11.618;2023-07-20T11:21:38;25.10;62.70
39925;DHT22;25592;49.986;11.618;2023-07-20T11:24:45;25.00;61.90
39925;DHT22;25592;49.986;11.618;2023-07-20T11:27:30;24.80;62.10
39925;DHT22;25592;49.986;11.618;2023-07-20T11:30:16;24.90;62.80
39925;DHT22;25592;49.986;11.618;2023-07-20T11:33:02;25.20;62.50
39925;DHT22;25592;49.986;11.618;2023-07-20T11:35:49;25.30;62.50
39925;DHT22;25592;49.986;11.618;2023-07-20T11:38:36;25.30;62.60
39925;DHT22;25592;49.986;11.618;2023-07-20T11:41:21;25.00;62.60
39925;DHT22;25592;49.986;11.618;2023-07-20T11:44:07;25.00;63.40
39925;DHT22;25592;49.986;11.618;2023-07-20T11:47:09;24.90;64.10
39925;DHT22;25592;49.986;11.618;2023-07-20T11:50:03;25.30;64.00
39925;DHT22;25592;49.986;11.618;2023-07-20T11:52:48;25.30;63.60
39925;DHT22;25592;49.986;11.618;2023-07-20T11:55:36;25.40;63.70
39925;DHT22;25592;49.986;11.618;2023-07-20T11:58:22;25.50;63.00
39925;DHT22;25592;49.986;11.618;2023-07-20T12:01:08;25.40;62.80
39925;DHT22;25592;49.986;11.618;2023-07-20T12:03:57;25.40;62.30
39925;DHT22;25592;49.986;11.618;2023-07-20T12:06:45;25.30;62.50
39925;DHT22;25592;49.986;11.618;2023-07-20T12:09:30;25.20;62.80
39925;DHT22;25592;49.986;11.618;2023-07-20T12:12:39;25.20;63.10
39925;DHT22;25592;49.986;11.618;2023-07-20T12:15:28;24.80;63.30
39925;DHT22;25592;49.986;11.618;2023-07-20T12:18:16;24.60;63.30
39925;DHT22;25592;49.986;11.618;2023-07-20T12:21:02;24.60;63.60
39925;DHT22;25592;49.986;11.618;2023-07-20T12:23:49;24.60;62.90
39925;DHT22;25592;49.986;11.618;2023-07-20T12:26:35;24.70;63.40
39925;DHT22;25592;49.986;11.618;2023-07-20T12:29:20;24.80;63.30
39925;DHT22;25592;49.986;11.618;2023-07-20T12:32:06;24.90;63.20
39925;DHT22;25592;49.986;11.618;2023-07-20T12:34:52;24.90;63.10
39925;DHT22;25592;49.986;11.618;2023-07-20T12:37:37;25.00;63.50
39925;DHT22;25592;49.986;11.618;2023-07-20T12:40:23;25.00;62.70
39925;DHT22;25592;49.986;11.618;2023-07-20T12:43:08;25.10;63.00
39925;DHT22;25592;49.986;11.618;2023-07-20T12:45:54;25.30;62.70
39925;DHT22;25592;49.986;11.618;2023-07-20T12:48:40;25.40;62.70
39925;DHT22;25592;49.986;11.618;2023-07-20T12:51:30;25.80;61.90
39925;DHT22;25592;49.986;11.618;2023-07-20T12:54:15;25.90;61.60
39925;DHT22;25592;49.986;11.618;2023-07-20T12:57:00;26.20;63.10
39925;DHT22;25592;49.986;11.618;2023-07-20T12:59:51;26.70;60.40
39925;DHT22;25592;49.986;11.618;2023-07-20T13:02:37;26.50;56.30
39925;DHT22;25592;49.986;11.618;2023-07-20T13:05:23;25.90;55.50
39925;DHT22;25592;49.986;11.618;2023-07-20T13:08:28;25.90;56.40
39925;DHT22;25592;49.986;11.618;2023-07-20T13:11:14;26.30;56.90
39925;DHT22;25592;49.986;11.618;2023-07-20T13:14:00;26.60;57.20
39925;DHT22;25592;49.986;11.618;2023-07-20T13:16:45;27.10;56.00
39925;DHT22;25592;49.986;11.618;2023-07-20T13:19:30;27.30;57.30
39925;DHT22;25592;49.986;11.618;2023-07-20T13:22:16;27.00;58.70
39925;DHT22;25592;49.986;11.618;2023-07-20T13:25:02;26.90;58.30
39925;DHT22;25592;49.986;11.618;2023-07-20T13:27:48;26.80;58.90
39925;DHT22;25592;49.986;11.618;2023-07-20T13:30:33;26.80;59.40
39925;DHT22;25592;49.986;11.618;2023-07-20T13:33:19;26.80;58.50
39925;DHT22;25592;49.986;11.618;2023-07-20T13:36:05;26.50;58.80
39925;DHT22;25592;49.986;11.618;2023-07-20T13:38:54;26.20;59.20
39925;DHT22;25592;49.986;11.618;2023-07-20T13:41:39;26.20;60.30
39925;DHT22;25592;49.986;11.618;2023-07-20T13:44:25;26.40;59.60
39925;DHT22;25592;49.986;11.618;2023-07-20T13:47:10;26.40;59.50
39925;DHT22;25592;49.986;11.618;2023-07-20T13:49:59;26.40;59.90
39925;DHT22;25592;49.986;11.618;2023-07-20T13:52:47;26.50;60.10
39925;DHT22;25592;49.986;11.618;2023-07-20T13:55:32;26.40;60.50
39925;DHT22;25592;49.986;11.618;2023-07-20T13:58:25;26.20;60.40
39925;DHT22;25592;49.986;11.618;2023-07-20T14:01:10;25.90;61.10
39925;DHT22;25592;49.986;11.618;2023-07-20T14:03:56;25.90;61.40
39925;DHT22;25592;49.986;11.618;2023-07-20T14:06:42;25.70;61.00
39925;DHT22;25592;49.986;11.618;2023-07-20T14:09:28;25.60;61.30
39925;DHT22;25592;49.986;11.618;2023-07-20T14:12:14;25.60;61.80
39925;DHT22;25592;49.986;11.618;2023-07-20T14:15:03;25.50;61.30
39925;DHT22;25592;49.986;11.618;2023-07-20T14:17:50;25.50;62.00
39925;DHT22;25592;49.986;11.618;2023-07-20T14:20:35;25.70;61.30
39925;DHT22;25592;49.986;11.618;2023-07-20T14:23:23;25.90;60.70
39925;DHT22;25592;49.986;11.618;2023-07-20T14:26:11;26.20;60.30
39925;DHT22;25592;49.986;11.618;2023-07-20T14:28:57;26.00;60.00
39925;DHT22;25592;49.986;11.618;2023-07-20T14:31:43;26.00;60.20
39925;DHT22;25592;49.986;11.618;2023-07-20T14:34:29;26.00;59.90
39925;DHT22;25592;49.986;11.618;2023-07-20T14:37:14;25.90;59.00
39925;DHT22;25592;49.986;11.618;2023-07-20T14:40:00;25.70;57.30
39925;DHT22;25592;49.986;11.618;2023-07-20T14:42:46;25.50;57.90
39925;DHT22;25592;49.986;11.618;2023-07-20T14:45:31;25.60;58.10
39925;DHT22;25592;49.986;11.618;2023-07-20T14:48:17;25.50;58.10
39925;DHT22;25592;49.986;11.618;2023-07-20T14:51:02;25.50;58.00
39925;DHT22;25592;49.986;11.618;2023-07-20T14:53:49;25.70;58.70
39925;DHT22;25592;49.986;11.618;2023-07-20T14:56:37;26.00;58.50
39925;DHT22;25592;49.986;11.618;2023-07-20T14:59:23;26.30;58.40
39925;DHT22;25592;49.986;11.618;2023-07-20T15:02:09;26.60;55.60
39925;DHT22;25592;49.986;11.618;2023-07-20T15:04:54;26.60;55.90
39925;DHT22;25592;49.986;11.618;2023-07-20T15:07:40;26.70;56.30
39925;DHT22;25592;49.986;11.618;2023-07-20T15:10:28;26.90;56.20
39925;DHT22;25592;49.986;11.618;2023-07-20T15:13:15;26.90;57.50
39925;DHT22;25592;49.986;11.618;2023-07-20T15:16:00;26.50;58.40
39925;DHT22;25592;49.986;11.618;2023-07-20T15:18:46;26.20;58.90
39925;DHT22;25592;49.986;11.618;2023-07-20T15:21:33;26.10;59.70
39925;DHT22;25592;49.986;11.618;2023-07-20T15:24:18;26.20;59.90
39925;DHT22;25592;49.986;11.618;2023-07-20T15:27:04;26.20;59.70
39925;DHT22;25592;49.986;11.618;2023-07-20T15:29:50;26.20;59.90
39925;DHT22;25592;49.986;11.618;2023-07-20T15:32:35;25.90;59.70
39925;DHT22;25592;49.986;11.618;2023-07-20T15:35:24;26.00;59.80
39925;DHT22;25592;49.986;11.618;2023-07-20T15:38:09;26.20;59.70
39925;DHT22;25592;49.986;11.618;2023-07-20T15:40:54;26.30;59.00
39925;DHT22;25592;49.986;11.618;2023-07-20T15:43:42;26.30;59.40
39925;DHT22;25592;49.986;11.618;2023-07-20T15:49:25;26.50;58.60
39925;DHT22;25592;49.986;11.618;2023-07-20T15:52:16;26.40;58.30
39925;DHT22;25592;49.986;11.618;2023-07-20T15:55:02;26.80;59.20
39925;DHT22;25592;49.986;11.618;2023-07-20T15:57:49;27.00;58.40
39925;DHT22;25592;49.986;11.618;2023-07-20T16:00:35;27.20;58.10
39925;DHT22;25592;49.986;11.618;2023-07-20T16:03:21;27.40;57.30
39925;DHT22;25592;49.986;11.618;2023-07-20T16:06:07;27.30;57.50
39925;DHT22;25592;49.986;11.618;2023-07-20T16:08:52;27.50;57.00
39925;DHT22;25592;49.986;11.618;2023-07-20T16:11:38;27.50;56.40
39925;DHT22;25592;49.986;11.618;2023-07-20T16:14:24;27.60;57.10
39925;DHT22;25592;49.986;11.618;2023-07-20T16:17:11;27.70;56.40
39925;DHT22;25592;49.986;11.618;2023-07-20T16:19:57;27.60;55.90
39925;DHT22;25592;49.986;11.618;2023-07-20T16:22:42;27.60;56.20
39925;DHT22;25592;49.986;11.618;2023-07-20T16:25:28;27.20;55.80
39925;DHT22;25592;49.986;11.618;2023-07-20T16:28:14;27.40;56.10
39925;DHT22;25592;49.986;11.618;2023-07-20T16:30:59;27.40;55.90
39925;DHT22;25592;49.986;11.618;2023-07-20T16:33:45;27.60;56.60
39925;DHT22;25592;49.986;11.618;2023-07-20T16:36:32;27.70;56.20
39925;DHT22;25592;49.986;11.618;2023-07-20T16:39:38;27.60;55.30
39925;DHT22;25592;49.986;11.618;2023-07-20T16:42:31;27.70;55.60
39925;DHT22;25592;49.986;11.618;2023-07-20T16:45:20;27.50;55.40
39925;DHT22;25592;49.986;11.618;2023-07-20T16:48:05;27.60;56.10
39925;DHT22;25592;49.986;11.618;2023-07-20T16:50:51;27.90;56.20
39925;DHT22;25592;49.986;11.618;2023-07-20T16:53:37;27.80;55.30
39925;DHT22;25592;49.986;11.618;2023-07-20T16:56:23;27.90;55.60
39925;DHT22;25592;49.986;11.618;2023-07-20T16:59:08;27.80;55.40
39925;DHT22;25592;49.986;11.618;2023-07-20T17:01:54;27.70;54.40
39925;DHT22;25592;49.986;11.618;2023-07-20T17:04:39;27.60;55.60
39925;DHT22;25592;49.986;11.618;2023-07-20T17:07:25;27.60;55.70
39925;DHT22;25592;49.986;11.618;2023-07-20T17:10:11;27.60;55.70
39925;DHT22;25592;49.986;11.618;2023-07-20T17:12:57;27.70;55.80
39925;DHT22;25592;49.986;11.618;2023-07-20T17:15:49;27.40;55.00
39925;DHT22;25592;49.986;11.618;2023-07-20T17:18:34;27.40;56.00
39925;DHT22;25592;49.986;11.618;2023-07-20T17:21:20;27.30;55.60
39925;DHT22;25592;49.986;11.618;2023-07-20T17:24:07;27.20;55.40
39925;DHT22;25592;49.986;11.618;2023-07-20T17:26:52;27.10;54.80
39925;DHT22;25592;49.986;11.618;2023-07-20T17:29:57;27.00;54.70